sensor_id;sensor_type;location;lat;lon;timestamp;pressure;altitude;pressure_sealevel;temperature;humidity
71485;BME280;59300;52.074;4.758;2022-07-22T00:00:36;102269.69;;;15.32;85.55
71485;BME280;59300;52.074;4.758;2022-07-22T00:03:55;102265.34;;;15.30;86.11
71485;BME280;59300;52.074;4.758;2022-07-22T00:07:14;102268.97;;;15.27;85.83
71485;BME280;59300;52.074;4.758;2022-07-22T00:10:33;102270.78;;;15.25;86.64
71485;BME280;59300;52.074;4.758;2022-07-22T00:13:53;102272.66;;;15.20;87.94
71485;BME280;59300;52.074;4.758;2022-07-22T00:17:12;102267.44;;;15.17;87.79
71485;BME280;59300;52.074;4.758;2022-07-22T00:20:30;102268.25;;;15.19;87.39
71485;BME280;59300;52.074;4.758;2022-07-22T00:23:49;102262.13;;;15.17;88.02
71485;BME280;59300;52.074;4.758;2022-07-22T00:27:08;102263.06;;;15.14;87.99
71485;BME280;59300;52.074;4.758;2022-07-22T00:30:27;102261.25;;;15.16;88.13
71485;BME280;59300;52.074;4.758;2022-07-22T00:33:47;102264.81;;;15.15;87.92
71485;BME280;59300;52.074;4.758;2022-07-22T00:37:06;102268.34;;;15.16;87.70
71485;BME280;59300;52.074;4.758;2022-07-22T00:40:25;102254.97;;;15.19;87.11
71485;BME280;59300;52.074;4.758;2022-07-22T00:44:12;102254.09;;;15.18;87.14
71485;BME280;59300;52.074;4.758;2022-07-22T00:47:31;102256.72;;;15.20;86.83
71485;BME280;59300;52.074;4.758;2022-07-22T00:50:51;102250.66;;;15.15;87.43
71485;BME280;59300;52.074;4.758;2022-07-22T00:54:10;102251.63;;;15.11;87.35
71485;BME280;59300;52.074;4.758;2022-07-22T00:57:29;102242.81;;;15.09;87.64
71485;BME280;59300;52.074;4.758;2022-07-22T01:00:49;102242.91;;;15.05;87.81
71485;BME280;59300;52.074;4.758;2022-07-22T01:04:08;102242.13;;;15.00;88.33
71485;BME280;59300;52.074;4.758;2022-07-22T01:07:27;102237.72;;;14.99;88.36
71485;BME280;59300;52.074;4.758;2022-07-22T01:10:46;102234.28;;;14.94;88.09
71485;BME280;59300;52.074;4.758;2022-07-22T01:14:05;102229.06;;;14.91;89.61
71485;BME280;59300;52.074;4.758;2022-07-22T01:17:24;102229.13;;;14.88;89.72
71485;BME280;59300;52.074;4.758;2022-07-22T01:20:43;102234.38;;;14.91;89.07
71485;BME280;59300;52.074;4.758;2022-07-22T01:24:03;102234.38;;;14.91;89.71
71485;BME280;59300;52.074;4.758;2022-07-22T01:27:24;102237.00;;;14.93;89.22
71485;BME280;59300;52.074;4.758;2022-07-22T01:30:43;102246.69;;;14.95;89.22
71485;BME280;59300;52.074;4.758;2022-07-22T01:34:02;102237.78;;;14.98;89.42
71485;BME280;59300;52.074;4.758;2022-07-22T01:37:22;102237.78;;;14.96;89.71
71485;BME280;59300;52.074;4.758;2022-07-22T01:40:42;102236.81;;;15.00;87.82
71485;BME280;59300;52.074;4.758;2022-07-22T01:44:02;102234.94;;;15.04;87.84
71485;BME280;59300;52.074;4.758;2022-07-22T01:47:21;102229.63;;;15.04;88.00
71485;BME280;59300;52.074;4.758;2022-07-22T01:50:41;102234.09;;;15.03;88.69
71485;BME280;59300;52.074;4.758;2022-07-22T01:54:00;102225.22;;;15.03;88.94
71485;BME280;59300;52.074;4.758;2022-07-22T01:57:19;102226.97;;;15.05;89.08
71485;BME280;59300;52.074;4.758;2022-07-22T02:00:42;102217.22;;;15.04;88.86
71485;BME280;59300;52.074;4.758;2022-07-22T02:04:01;102226.03;;;15.07;88.74
71485;BME280;59300;52.074;4.758;2022-07-22T02:07:21;102219.88;;;15.04;88.87
71485;BME280;59300;52.074;4.758;2022-07-22T02:10:40;102219.97;;;15.01;88.57
71485;BME280;59300;52.074;4.758;2022-07-22T02:13:59;102220.03;;;14.98;89.19
71485;BME280;59300;52.074;4.758;2022-07-22T02:17:21;102228.00;;;14.98;89.56
71485;BME280;59300;52.074;4.758;2022-07-22T02:20:40;102219.13;;;14.99;89.44
71485;BME280;59300;52.074;4.758;2022-07-22T02:23:59;102219.13;;;14.99;90.14
71485;BME280;59300;52.074;4.758;2022-07-22T02:27:18;102220.88;;;15.00;90.23
71485;BME280;59300;52.074;4.758;2022-07-22T02:30:38;102224.44;;;14.99;90.68
71485;BME280;59300;52.074;4.758;2022-07-22T02:33:57;102228.84;;;15.00;91.25
71485;BME280;59300;52.074;4.758;2022-07-22T02:37:18;102220.91;;;14.99;91.63
71485;BME280;59300;52.074;4.758;2022-07-22T02:40:37;102220.09;;;14.95;91.56
71485;BME280;59300;52.074;4.758;2022-07-22T02:43:56;102223.75;;;14.91;91.81
71485;BME280;59300;52.074;4.758;2022-07-22T02:47:15;102220.25;;;14.89;91.95
71485;BME280;59300;52.074;4.758;2022-07-22T02:50:36;102207.94;;;14.85;92.28
71485;BME280;59300;52.074;4.758;2022-07-22T02:53:56;102206.19;;;14.84;92.09
71485;BME280;59300;52.074;4.758;2022-07-22T02:57:15;102210.66;;;14.83;91.73
71485;BME280;59300;52.074;4.758;2022-07-22T03:00:35;102200.88;;;14.84;90.35
71485;BME280;59300;52.074;4.758;2022-07-22T03:03:54;102208.84;;;14.84;90.83
71485;BME280;59300;52.074;4.758;2022-07-22T03:07:14;102206.19;;;14.84;90.97
71485;BME280;59300;52.074;4.758;2022-07-22T03:10:33;102205.28;;;14.86;90.12
71485;BME280;59300;52.074;4.758;2022-07-22T03:13:52;102206.13;;;14.87;90.21
71485;BME280;59300;52.074;4.758;2022-07-22T03:17:12;102204.31;;;14.89;89.49
71485;BME280;59300;52.074;4.758;2022-07-22T03:20:31;102204.25;;;14.92;90.04
71485;BME280;59300;52.074;4.758;2022-07-22T03:23:51;102206.00;;;14.93;89.67
71485;BME280;59300;52.074;4.758;2022-07-22T03:27:10;102221.09;;;14.91;89.37
71485;BME280;59300;52.074;4.758;2022-07-22T03:30:28;102215.78;;;14.91;89.76
71485;BME280;59300;52.074;4.758;2022-07-22T03:33:47;102213.13;;;14.91;90.71
71485;BME280;59300;52.074;4.758;2022-07-22T03:37:07;102213.06;;;14.93;90.71
71485;BME280;59300;52.074;4.758;2022-07-22T03:40:26;102212.16;;;14.94;90.75
71485;BME280;59300;52.074;4.758;2022-07-22T03:43:45;102211.22;;;14.96;88.84
71485;BME280;59300;52.074;4.758;2022-07-22T03:47:04;102201.47;;;14.97;88.43
71485;BME280;59300;52.074;4.758;2022-07-22T03:50:24;102206.81;;;14.95;88.47
71485;BME280;59300;52.074;4.758;2022-07-22T03:53:43;102201.59;;;14.92;88.69
71485;BME280;59300;52.074;4.758;2022-07-22T03:57:02;102197.06;;;14.94;88.36
71485;BME280;59300;52.074;4.758;2022-07-22T04:00:21;102209.56;;;14.92;89.07
71485;BME280;59300;52.074;4.758;2022-07-22T04:03:40;102204.25;;;14.92;89.53
71485;BME280;59300;52.074;4.758;2022-07-22T04:07:02;102211.22;;;14.96;89.09
71485;BME280;59300;52.074;4.758;2022-07-22T04:10:27;102219.13;;;14.99;89.56
71485;BME280;59300;52.074;4.758;2022-07-22T04:13:46;102214.63;;;15.01;89.66
71485;BME280;59300;52.074;4.758;2022-07-22T04:17:05;102217.22;;;15.04;90.34
71485;BME280;59300;52.074;4.758;2022-07-22T04:20:24;102221.53;;;15.10;90.40
71485;BME280;59300;52.074;4.758;2022-07-22T04:24:07;102216.09;;;15.15;90.28
71485;BME280;59300;52.074;4.758;2022-07-22T04:27:26;102208.84;;;15.20;91.30
71485;BME280;59300;52.074;4.758;2022-07-22T04:30:45;102212.28;;;15.25;89.82
71485;BME280;59300;52.074;4.758;2022-07-22T04:34:04;102213.84;;;15.32;89.00
71485;BME280;59300;52.074;4.758;2022-07-22T04:37:23;102210.13;;;15.40;89.29
71485;BME280;59300;52.074;4.758;2022-07-22T04:40:43;102204.56;;;15.49;88.93
71485;BME280;59300;52.074;4.758;2022-07-22T04:44:02;102206.97;;;15.58;87.11
71485;BME280;59300;52.074;4.758;2022-07-22T04:47:24;102203.31;;;15.62;87.15
71485;BME280;59300;52.074;4.758;2022-07-22T04:50:43;102203.09;;;15.70;86.19
71485;BME280;59300;52.074;4.758;2022-07-22T04:54:02;102203.59;;;15.83;85.46
71485;BME280;59300;52.074;4.758;2022-07-22T04:57:22;102189.38;;;15.84;84.01
71485;BME280;59300;52.074;4.758;2022-07-22T05:00:42;102190.09;;;15.92;85.36
71485;BME280;59300;52.074;4.758;2022-07-22T05:04:01;102189.91;;;15.99;85.91
71485;BME280;59300;52.074;4.758;2022-07-22T05:07:20;102197.72;;;16.05;85.62
71485;BME280;59300;52.074;4.758;2022-07-22T05:10:39;102191.34;;;16.10;85.40
71485;BME280;59300;52.074;4.758;2022-07-22T05:13:59;102192.66;;;16.25;83.36
71485;BME280;59300;52.074;4.758;2022-07-22T05:17:18;102200.09;;;16.44;81.66
71485;BME280;59300;52.074;4.758;2022-07-22T05:20:50;102203.38;;;16.52;81.09
71485;BME280;59300;52.074;4.758;2022-07-22T05:24:09;102197.00;;;16.58;80.38
71485;BME280;59300;52.074;4.758;2022-07-22T05:27:28;102200.28;;;16.66;79.08
71485;BME280;59300;52.074;4.758;2022-07-22T05:30:48;102204.75;;;16.66;76.60
71485;BME280;59300;52.074;4.758;2022-07-22T05:34:07;102206.09;;;16.79;76.47
71485;BME280;59300;52.074;4.758;2022-07-22T05:37:32;102198.94;;;16.81;76.64
71485;BME280;59300;52.074;4.758;2022-07-22T05:40:51;102205.72;;;16.90;75.84
71485;BME280;59300;52.074;4.758;2022-07-22T05:44:10;102209.94;;;16.99;77.58
71485;BME280;59300;52.074;4.758;2022-07-22T05:47:28;102202.44;;;17.10;75.08
71485;BME280;59300;52.074;4.758;2022-07-22T05:50:47;102204.59;;;17.26;74.82
71485;BME280;59300;52.074;4.758;2022-07-22T05:54:06;102197.53;;;17.50;75.05
71485;BME280;59300;52.074;4.758;2022-07-22T05:57:25;102206.84;;;17.63;76.86
71485;BME280;59300;52.074;4.758;2022-07-22T06:00:45;102204.84;;;17.94;71.93
71485;BME280;59300;52.074;4.758;2022-07-22T06:04:04;102202.69;;;18.04;71.08
71485;BME280;59300;52.074;4.758;2022-07-22T06:07:24;102198.22;;;18.28;70.21
71485;BME280;59300;52.074;4.758;2022-07-22T06:10:49;102206.34;;;18.71;65.70
71485;BME280;59300;52.074;4.758;2022-07-22T06:14:10;102203.16;;;18.61;68.91
71485;BME280;59300;52.074;4.758;2022-07-22T06:17:29;102198.88;;;18.57;66.73
71485;BME280;59300;52.074;4.758;2022-07-22T06:20:49;102196.03;;;18.16;68.42
71485;BME280;59300;52.074;4.758;2022-07-22T06:24:08;102192.84;;;18.06;68.92
71485;BME280;59300;52.074;4.758;2022-07-22T06:27:27;102189.47;;;18.24;67.51
71485;BME280;59300;52.074;4.758;2022-07-22T06:30:47;102192.72;;;18.55;66.68
71485;BME280;59300;52.074;4.758;2022-07-22T06:34:07;102193.09;;;18.46;66.46
71485;BME280;59300;52.074;4.758;2022-07-22T06:37:43;102194.47;;;18.56;67.16
71485;BME280;59300;52.074;4.758;2022-07-22T06:41:03;102198.25;;;18.50;66.42
71485;BME280;59300;52.074;4.758;2022-07-22T06:44:37;102199.94;;;18.53;64.55
71485;BME280;59300;52.074;4.758;2022-07-22T06:48:05;102208.50;;;18.61;66.69
71485;BME280;59300;52.074;4.758;2022-07-22T06:51:24;102213.50;;;18.70;65.37
71485;BME280;59300;52.074;4.758;2022-07-22T06:54:43;102201.91;;;18.48;67.37
71485;BME280;59300;52.074;4.758;2022-07-22T06:58:10;102208.03;;;18.51;65.90
71485;BME280;59300;52.074;4.758;2022-07-22T07:01:30;102204.47;;;18.51;65.33
71485;BME280;59300;52.074;4.758;2022-07-22T07:04:53;102210.22;;;18.40;67.62
71485;BME280;59300;52.074;4.758;2022-07-22T07:08:12;102202.38;;;18.35;65.20
71485;BME280;59300;52.074;4.758;2022-07-22T07:11:31;102202.53;;;18.32;67.15
71485;BME280;59300;52.074;4.758;2022-07-22T07:14:51;102199.00;;;18.54;64.72
71485;BME280;59300;52.074;4.758;2022-07-22T07:18:10;102211.59;;;18.72;65.43
71485;BME280;59300;52.074;4.758;2022-07-22T07:21:29;102204.59;;;18.92;65.15
71485;BME280;59300;52.074;4.758;2022-07-22T07:24:49;102205.22;;;18.77;63.45
71485;BME280;59300;52.074;4.758;2022-07-22T07:28:08;102206.72;;;18.62;65.21
71485;BME280;59300;52.074;4.758;2022-07-22T07:31:46;102209.13;;;18.46;65.84
71485;BME280;59300;52.074;4.758;2022-07-22T07:35:07;102207.69;;;18.59;64.06
71485;BME280;59300;52.074;4.758;2022-07-22T07:38:27;102198.22;;;18.96;62.87
71485;BME280;59300;52.074;4.758;2022-07-22T07:41:46;102195.34;;;19.01;63.45
71485;BME280;59300;52.074;4.758;2022-07-22T07:45:07;102209.88;;;18.71;63.70
71485;BME280;59300;52.074;4.758;2022-07-22T07:48:26;102210.38;;;18.37;64.75
71485;BME280;59300;52.074;4.758;2022-07-22T07:51:45;102203.47;;;18.31;64.39
71485;BME280;59300;52.074;4.758;2022-07-22T07:55:06;102213.09;;;18.11;66.55
71485;BME280;59300;52.074;4.758;2022-07-22T07:58:25;102209.97;;;18.24;66.96
71485;BME280;59300;52.074;4.758;2022-07-22T08:01:44;102207.13;;;18.51;67.94
71485;BME280;59300;52.074;4.758;2022-07-22T08:05:04;102201.03;;;18.47;65.65
71485;BME280;59300;52.074;4.758;2022-07-22T08:08:23;102194.44;;;18.78;64.54
71485;BME280;59300;52.074;4.758;2022-07-22T08:11:43;102193.00;;;18.92;64.75
71485;BME280;59300;52.074;4.758;2022-07-22T08:15:32;102189.91;;;19.02;64.37
71485;BME280;59300;52.074;4.758;2022-07-22T08:18:58;102191.19;;;19.56;61.55
71485;BME280;59300;52.074;4.758;2022-07-22T08:22:17;102196.81;;;19.70;60.46
71485;BME280;59300;52.074;4.758;2022-07-22T08:25:39;102200.22;;;20.33;58.23
71485;BME280;59300;52.074;4.758;2022-07-22T08:28:58;102190.44;;;20.32;58.93
71485;BME280;59300;52.074;4.758;2022-07-22T08:32:16;102189.47;;;20.52;56.70
71485;BME280;59300;52.074;4.758;2022-07-22T08:35:35;102186.50;;;21.47;53.47
71485;BME280;59300;52.074;4.758;2022-07-22T08:38:55;102180.50;;;21.60;52.15
71485;BME280;59300;52.074;4.758;2022-07-22T08:42:15;102184.69;;;22.47;49.54
71485;BME280;59300;52.074;4.758;2022-07-22T08:45:34;102172.00;;;22.33;54.09
71485;BME280;59300;52.074;4.758;2022-07-22T08:48:53;102174.66;;;23.12;48.04
71485;BME280;59300;52.074;4.758;2022-07-22T08:52:18;102158.47;;;24.42;44.76
71485;BME280;59300;52.074;4.758;2022-07-22T08:55:42;102171.16;;;24.54;44.07
71485;BME280;59300;52.074;4.758;2022-07-22T08:59:01;102160.59;;;24.92;42.84
71485;BME280;59300;52.074;4.758;2022-07-22T09:02:21;102166.31;;;24.87;43.55
71485;BME280;59300;52.074;4.758;2022-07-22T09:05:42;102168.47;;;23.40;45.54
71485;BME280;59300;52.074;4.758;2022-07-22T09:09:04;102161.59;;;21.95;50.02
71485;BME280;59300;52.074;4.758;2022-07-22T09:12:57;102159.00;;;21.60;51.80
71485;BME280;59300;52.074;4.758;2022-07-22T09:16:47;102178.38;;;23.09;49.98
71485;BME280;59300;52.074;4.758;2022-07-22T09:20:20;102165.66;;;25.50;41.52
71485;BME280;59300;52.074;4.758;2022-07-22T09:24:04;102159.34;;;25.36;40.47
71485;BME280;59300;52.074;4.758;2022-07-22T09:27:24;102155.34;;;25.29;40.69
71485;BME280;59300;52.074;4.758;2022-07-22T09:31:26;102153.75;;;23.31;44.10
71485;BME280;59300;52.074;4.758;2022-07-22T09:34:48;102155.59;;;22.54;45.29
71485;BME280;59300;52.074;4.758;2022-07-22T09:38:16;102160.88;;;23.47;44.64
71485;BME280;59300;52.074;4.758;2022-07-22T09:41:56;102164.19;;;23.96;43.24
71485;BME280;59300;52.074;4.758;2022-07-22T09:45:15;102163.47;;;25.68;38.50
71485;BME280;59300;52.074;4.758;2022-07-22T09:48:36;102166.75;;;24.94;39.70
71485;BME280;59300;52.074;4.758;2022-07-22T09:52:14;102169.06;;;23.74;41.74
71485;BME280;59300;52.074;4.758;2022-07-22T09:55:52;102161.84;;;22.70;44.20
71485;BME280;59300;52.074;4.758;2022-07-22T09:59:11;102168.31;;;21.70;47.04
71485;BME280;59300;52.074;4.758;2022-07-22T10:02:36;102172.75;;;21.36;49.79
71485;BME280;59300;52.074;4.758;2022-07-22T10:05:59;102176.06;;;21.41;49.08
71485;BME280;59300;52.074;4.758;2022-07-22T10:09:20;102190.88;;;21.48;49.80
71485;BME280;59300;52.074;4.758;2022-07-22T10:12:41;102188.34;;;20.75;51.18
71485;BME280;59300;52.074;4.758;2022-07-22T10:16:01;102172.09;;;21.48;49.36
71485;BME280;59300;52.074;4.758;2022-07-22T10:19:21;102177.94;;;21.57;48.80
71485;BME280;59300;52.074;4.758;2022-07-22T10:26:03;102179.94;;;23.13;44.98
71485;BME280;59300;52.074;4.758;2022-07-22T10:29:39;102177.38;;;22.65;45.60
71485;BME280;59300;52.074;4.758;2022-07-22T10:36:44;102184.97;;;23.20;46.81
71485;BME280;59300;52.074;4.758;2022-07-22T10:40:21;102182.66;;;23.73;42.70
71485;BME280;59300;52.074;4.758;2022-07-22T10:47:02;102181.06;;;22.79;45.52
71485;BME280;59300;52.074;4.758;2022-07-22T10:53:57;102175.13;;;22.74;44.69
71485;BME280;59300;52.074;4.758;2022-07-22T10:57:28;102171.81;;;23.29;45.06
71485;BME280;59300;52.074;4.758;2022-07-22T11:00:47;102159.91;;;23.91;43.59
71485;BME280;59300;52.074;4.758;2022-07-22T11:04:09;102155.41;;;24.06;42.08
71485;BME280;59300;52.074;4.758;2022-07-22T11:07:28;102153.38;;;23.81;42.34
71485;BME280;59300;52.074;4.758;2022-07-22T11:10:48;102149.22;;;23.01;44.53
71485;BME280;59300;52.074;4.758;2022-07-22T11:14:21;102150.13;;;22.39;47.01
71485;BME280;59300;52.074;4.758;2022-07-22T11:17:40;102148.22;;;22.74;45.24
71485;BME280;59300;52.074;4.758;2022-07-22T11:20:59;102136.66;;;22.39;47.52
71485;BME280;59300;52.074;4.758;2022-07-22T11:24:19;102131.50;;;21.88;48.19
71485;BME280;59300;52.074;4.758;2022-07-22T11:27:38;102141.47;;;22.34;47.62
71485;BME280;59300;52.074;4.758;2022-07-22T11:31:07;102136.19;;;23.10;46.24
71485;BME280;59300;52.074;4.758;2022-07-22T11:34:27;102145.91;;;22.35;46.25
71485;BME280;59300;52.074;4.758;2022-07-22T11:37:55;102146.13;;;22.63;44.69
71485;BME280;59300;52.074;4.758;2022-07-22T11:41:16;102139.44;;;23.31;44.64
71485;BME280;59300;52.074;4.758;2022-07-22T11:44:37;102121.66;;;24.14;41.80
71485;BME280;59300;52.074;4.758;2022-07-22T11:47:56;102128.38;;;24.76;40.73
71485;BME280;59300;52.074;4.758;2022-07-22T11:51:15;102116.72;;;24.20;40.85
71485;BME280;59300;52.074;4.758;2022-07-22T11:54:34;102106.75;;;23.93;41.28
71485;BME280;59300;52.074;4.758;2022-07-22T11:57:53;102095.63;;;24.00;41.58
71485;BME280;59300;52.074;4.758;2022-07-22T12:01:14;102089.66;;;23.66;43.47
71485;BME280;59300;52.074;4.758;2022-07-22T12:04:34;102102.75;;;23.28;44.96
71485;BME280;59300;52.074;4.758;2022-07-22T12:07:53;102096.19;;;23.18;45.65
71485;BME280;59300;52.074;4.758;2022-07-22T12:11:14;102097.91;;;23.19;45.10
71485;BME280;59300;52.074;4.758;2022-07-22T12:14:34;102095.34;;;22.73;46.90
71485;BME280;59300;52.074;4.758;2022-07-22T12:17:53;102092.31;;;23.08;44.46
71485;BME280;59300;52.074;4.758;2022-07-22T12:21:12;102085.63;;;23.58;42.20
71485;BME280;59300;52.074;4.758;2022-07-22T12:24:34;102103.88;;;23.82;43.40
71485;BME280;59300;52.074;4.758;2022-07-22T12:28:00;102095.19;;;23.05;44.72
71485;BME280;59300;52.074;4.758;2022-07-22T12:31:20;102078.47;;;23.14;43.80
71485;BME280;59300;52.074;4.758;2022-07-22T12:38:06;102080.22;;;23.73;41.37
71485;BME280;59300;52.074;4.758;2022-07-22T12:41:26;102081.13;;;24.01;40.84
71485;BME280;59300;52.074;4.758;2022-07-22T12:48:27;102080.44;;;23.26;43.66
71485;BME280;59300;52.074;4.758;2022-07-22T12:55:28;102072.66;;;23.92;43.69
71485;BME280;59300;52.074;4.758;2022-07-22T12:58:47;102068.88;;;24.37;41.29
71485;BME280;59300;52.074;4.758;2022-07-22T13:02:06;102075.34;;;24.07;40.35
71485;BME280;59300;52.074;4.758;2022-07-22T13:05:26;102072.88;;;24.44;39.97
71485;BME280;59300;52.074;4.758;2022-07-22T13:08:45;102075.13;;;24.37;40.01
71485;BME280;59300;52.074;4.758;2022-07-22T13:12:04;102065.97;;;23.85;41.66
71485;BME280;59300;52.074;4.758;2022-07-22T13:15:23;102061.53;;;24.39;38.51
71485;BME280;59300;52.074;4.758;2022-07-22T13:18:42;102070.53;;;24.12;39.76
71485;BME280;59300;52.074;4.758;2022-07-22T13:22:01;102066.91;;;23.99;41.40
71485;BME280;59300;52.074;4.758;2022-07-22T13:25:20;102072.59;;;23.94;42.69
71485;BME280;59300;52.074;4.758;2022-07-22T13:28:38;102089.88;;;23.34;44.38
71485;BME280;59300;52.074;4.758;2022-07-22T13:31:57;102081.94;;;23.16;44.43
71485;BME280;59300;52.074;4.758;2022-07-22T13:35:16;102072.91;;;23.17;44.06
71485;BME280;59300;52.074;4.758;2022-07-22T13:38:36;102071.22;;;23.30;45.25
71485;BME280;59300;52.074;4.758;2022-07-22T13:41:55;102068.09;;;23.08;45.34
71485;BME280;59300;52.074;4.758;2022-07-22T13:45:14;102067.09;;;23.81;43.01
71485;BME280;59300;52.074;4.758;2022-07-22T13:48:33;102072.16;;;23.44;44.58
71485;BME280;59300;52.074;4.758;2022-07-22T13:51:52;102069.59;;;23.28;46.50
71485;BME280;59300;52.074;4.758;2022-07-22T13:55:11;102065.38;;;23.80;43.82
71485;BME280;59300;52.074;4.758;2022-07-22T13:58:30;102072.31;;;23.84;43.99
71485;BME280;59300;52.074;4.758;2022-07-22T14:01:49;102075.22;;;23.38;46.27
71485;BME280;59300;52.074;4.758;2022-07-22T14:05:08;102061.13;;;22.89;45.95
71485;BME280;59300;52.074;4.758;2022-07-22T14:08:27;102051.56;;;23.28;45.10
71485;BME280;59300;52.074;4.758;2022-07-22T14:11:46;102045.13;;;24.02;42.73
71485;BME280;59300;52.074;4.758;2022-07-22T14:15:07;102049.94;;;24.24;42.55
71485;BME280;59300;52.074;4.758;2022-07-22T14:18:26;102041.69;;;24.00;43.74
71485;BME280;59300;52.074;4.758;2022-07-22T14:21:46;102029.03;;;24.28;42.46
71485;BME280;59300;52.074;4.758;2022-07-22T14:25:05;102038.69;;;24.58;40.81
71485;BME280;59300;52.074;4.758;2022-07-22T14:28:24;102038.91;;;23.72;43.96
71485;BME280;59300;52.074;4.758;2022-07-22T14:31:43;102058.38;;;23.77;44.08
71485;BME280;59300;52.074;4.758;2022-07-22T14:35:03;102050.91;;;23.54;45.75
71485;BME280;59300;52.074;4.758;2022-07-22T14:38:22;102055.94;;;24.42;42.92
71485;BME280;59300;52.074;4.758;2022-07-22T14:41:41;102057.75;;;23.87;45.26
71485;BME280;59300;52.074;4.758;2022-07-22T14:45:00;102045.00;;;24.71;40.99
71485;BME280;59300;52.074;4.758;2022-07-22T14:48:19;102046.94;;;25.47;39.54
71485;BME280;59300;52.074;4.758;2022-07-22T14:51:38;102046.25;;;24.52;41.79
71485;BME280;59300;52.074;4.758;2022-07-22T14:54:57;102043.59;;;24.78;40.82
71485;BME280;59300;52.074;4.758;2022-07-22T14:58:16;102046.19;;;23.43;44.57
71485;BME280;59300;52.074;4.758;2022-07-22T15:01:35;102040.13;;;23.39;43.58
71485;BME280;59300;52.074;4.758;2022-07-22T15:04:53;102033.72;;;24.51;40.76
71485;BME280;59300;52.074;4.758;2022-07-22T15:08:12;102029.59;;;24.46;42.89
71485;BME280;59300;52.074;4.758;2022-07-22T15:11:31;102036.31;;;24.13;43.81
71485;BME280;59300;52.074;4.758;2022-07-22T15:14:50;102035.53;;;23.98;43.33
71485;BME280;59300;52.074;4.758;2022-07-22T15:18:09;102020.69;;;23.49;44.30
71485;BME280;59300;52.074;4.758;2022-07-22T15:21:28;102000.03;;;23.35;44.11
71485;BME280;59300;52.074;4.758;2022-07-22T15:24:47;102006.91;;;22.81;45.29
71485;BME280;59300;52.074;4.758;2022-07-22T15:28:06;102010.56;;;22.80;47.58
71485;BME280;59300;52.074;4.758;2022-07-22T15:31:26;102018.94;;;22.90;45.78
71485;BME280;59300;52.074;4.758;2022-07-22T15:34:45;102000.94;;;22.61;47.89
71485;BME280;59300;52.074;4.758;2022-07-22T15:38:04;101999.28;;;22.28;48.22
71485;BME280;59300;52.074;4.758;2022-07-22T15:41:22;101999.41;;;22.72;46.12
71485;BME280;59300;52.074;4.758;2022-07-22T15:44:41;101989.97;;;23.51;44.51
71485;BME280;59300;52.074;4.758;2022-07-22T15:48:01;102008.69;;;23.11;45.54
71485;BME280;59300;52.074;4.758;2022-07-22T15:51:20;102007.16;;;23.36;45.63
71485;BME280;59300;52.074;4.758;2022-07-22T15:54:39;102018.88;;;23.35;45.56
71485;BME280;59300;52.074;4.758;2022-07-22T15:57:58;102023.59;;;23.31;45.69
71485;BME280;59300;52.074;4.758;2022-07-22T16:01:17;102030.69;;;22.44;48.21
71485;BME280;59300;52.074;4.758;2022-07-22T16:04:36;102020.97;;;22.25;49.75
71485;BME280;59300;52.074;4.758;2022-07-22T16:07:55;102011.88;;;22.28;48.56
71485;BME280;59300;52.074;4.758;2022-07-22T16:11:14;102014.38;;;22.47;47.59
71485;BME280;59300;52.074;4.758;2022-07-22T16:14:33;102006.28;;;22.00;48.85
71485;BME280;59300;52.074;4.758;2022-07-22T16:17:52;101991.19;;;21.49;49.88
71485;BME280;59300;52.074;4.758;2022-07-22T16:24:30;101999.25;;;21.00;52.61
71485;BME280;59300;52.074;4.758;2022-07-22T16:27:49;101992.41;;;21.28;52.08
71485;BME280;59300;52.074;4.758;2022-07-22T16:31:08;101996.94;;;20.94;53.35
71485;BME280;59300;52.074;4.758;2022-07-22T16:34:28;101996.78;;;20.79;54.67
71485;BME280;59300;52.074;4.758;2022-07-22T16:37:46;101994.19;;;20.78;54.35
71485;BME280;59300;52.074;4.758;2022-07-22T16:41:06;101989.66;;;20.61;54.54
71485;BME280;59300;52.074;4.758;2022-07-22T16:44:25;101988.59;;;20.30;55.88
71485;BME280;59300;52.074;4.758;2022-07-22T16:47:44;101980.69;;;20.26;54.92
71485;BME280;59300;52.074;4.758;2022-07-22T16:51:03;101984.59;;;20.02;56.38
71485;BME280;59300;52.074;4.758;2022-07-22T16:54:22;101983.28;;;20.10;56.45
71485;BME280;59300;52.074;4.758;2022-07-22T16:57:41;101979.25;;;20.02;57.00
71485;BME280;59300;52.074;4.758;2022-07-22T17:01:00;101976.59;;;20.19;56.57
71485;BME280;59300;52.074;4.758;2022-07-22T17:04:18;101957.03;;;20.52;54.80
71485;BME280;59300;52.074;4.758;2022-07-22T17:07:37;101949.72;;;20.38;55.41
71485;BME280;59300;52.074;4.758;2022-07-22T17:10:56;101960.44;;;20.38;54.68
71485;BME280;59300;52.074;4.758;2022-07-22T17:14:15;101957.34;;;20.11;56.67
71485;BME280;59300;52.074;4.758;2022-07-22T17:17:34;101955.09;;;19.84;57.42
71485;BME280;59300;52.074;4.758;2022-07-22T17:20:53;101944.44;;;19.46;58.60
71485;BME280;59300;52.074;4.758;2022-07-22T17:24:12;101940.97;;;19.44;59.02
71485;BME280;59300;52.074;4.758;2022-07-22T17:27:31;101956.09;;;19.45;58.19
71485;BME280;59300;52.074;4.758;2022-07-22T17:30:50;101949.25;;;19.57;58.21
71485;BME280;59300;52.074;4.758;2022-07-22T17:34:09;101953.63;;;19.59;58.76
71485;BME280;59300;52.074;4.758;2022-07-22T17:37:28;101958.31;;;19.54;57.92
71485;BME280;59300;52.074;4.758;2022-07-22T17:40:47;101950.06;;;19.40;58.40
71485;BME280;59300;52.074;4.758;2022-07-22T17:44:06;101948.00;;;19.27;58.97
71485;BME280;59300;52.074;4.758;2022-07-22T17:47:25;101951.97;;;19.18;58.87
71485;BME280;59300;52.074;4.758;2022-07-22T17:50:44;101948.41;;;18.99;59.23
71485;BME280;59300;52.074;4.758;2022-07-22T17:54:03;101956.25;;;18.83;61.36
71485;BME280;59300;52.074;4.758;2022-07-22T17:57:22;101954.13;;;18.70;62.39